Flight Track Log - Related Links

Times and Time Zones

All times are in EDT time to prevent confusion due to time zone crossing. See the UAL4498 flight status page for this flight to view local times or setup timezone preferences in your user account.

Time Position Orientation Groundspeed Altitude Reporting Facility
EDT Latitude Longitude Course Direction KTS MPH feet Rate Location/Type
Fri 10:52:00 AM 40.6392 -74.1894 276° West 180 207 2,100  Level New York Center
Fri 10:52:58 AM 40.6350 -74.2658 266° West 234 269 4,300 2,471 Climbing New York Center
Fri 10:53:59 AM 40.6639 -74.3414 297° West 274 315 7,000 2,707 Climbing New York Center
Fri 10:55:11 AM 40.6833 -74.4500 283° West 258 297 10,300 1,833 Climbing New York TRACON
Fri 10:56:59 AM 40.7189 -74.6425 284° West 307 353 12,500 1,321 Climbing New York Center
Fri 10:57:00 AM 40.7591 -74.8173 276° West  Level FlightAware Approximate
Fri 10:57:59 AM 40.7383 -74.7506 283° West 332 382 14,000  Level New York Center
Fri 10:59:00 AM 40.7628 -74.8833 284° West 337 388 15,600 1,438 Climbing New York Center
Fri 11:00:00 AM 40.7833 -75.0136 282° West 347 399 16,900 1,250 Climbing New York Center
Fri 11:01:00 AM 40.8017 -75.1408 281° West 360 414 18,100 1,220 Climbing New York Center
Fri 11:01:58 AM 40.7783 -75.2572 255° West 353 406 19,300 1,261 Climbing New York Center
Fri 11:02:59 AM 40.7361 -75.3858 247° West 348 400 20,600 1,230 Climbing New York Center
Fri 11:04:00 AM 40.6978 -75.5092 248° West 358 412 21,800 1,033 Climbing New York Center
Fri 11:05:01 AM 40.6636 -75.6353 250° West 368 423 22,700 864 Climbing New York Center
Fri 11:05:58 AM 40.6228 -75.7608 247° West 368 423 23,500 1,059 Climbing New York Center
Fri 11:07:00 AM 40.5800 -75.8836 245° Southwest 368 423 24,800 1,279 Climbing New York Center
Fri 11:08:00 AM 40.5358 -75.9922 242° Southwest 376 433 26,100 1,424 Climbing New York Center
Fri 11:08:58 AM 40.4911 -76.1061 243° Southwest 370 426 27,600 1,008 Climbing New York Center
Fri 11:09:59 AM 40.4481 -76.2256 245° Southwest 364 419 28,100 1,041 Climbing New York Center
Fri 11:10:59 AM 40.4008 -76.3419 242° Southwest 364 419 29,700 1,600 Climbing New York Center
Fri 11:11:59 AM 40.3581 -76.4556 244° Southwest 359 413 31,300 1,650 Climbing New York Center
Fri 11:12:59 AM 40.3294 -76.5703 252° West 354 407 33,000 1,537 Climbing New York Center
Fri 11:14:00 AM 40.3047 -76.6715 260° West  Level FlightAware Approximate
Fri 11:14:00 AM 40.3131 -76.6914 260° West 337 388 34,400  Level New York Center
Fri 11:15:01 AM 40.2969 -76.8017 259° West 326 375 35,700 807 Climbing New York Center
Fri 11:15:59 AM 40.2789 -76.9117 258° West 320 368 36,000 151 Climbing New York Center
Fri 11:17:00 AM 40.2600 -77.0325 258° West 330 380 36,000  Level New York Center
Fri 11:17:58 AM 40.2406 -77.1614 259° West 349 402 36,000  Level New York Center
Fri 11:19:57 AM 40.1989 -77.4408 259° West 384 442 36,000  Level Cleveland Center
Fri 11:20:56 AM 40.1775 -77.5775 258° West 390 449 36,000  Level Cleveland Center
Fri 11:21:57 AM 40.1561 -77.7172 259° West 390 449 36,000  Level Cleveland Center
Fri 11:22:56 AM 40.1386 -77.8536 261° West 390 449 36,000  Level Cleveland Center
Fri 11:23:56 AM 40.1378 -77.9894 270° West 401 461 36,000  Level Cleveland Center
Fri 11:24:56 AM 40.1367 -78.1336 269° West 406 467 36,000  Level Cleveland Center
Fri 11:25:57 AM 40.1397 -78.2828 272° West 406 467 36,000  Level Cleveland Center
Fri 11:26:56 AM 40.1406 -78.4267 270° West 406 467 36,000  Level Cleveland Center
Fri 11:27:56 AM 40.1411 -78.5733 270° West 401 461 36,000  Level Cleveland Center
Fri 11:28:57 AM 40.1417 -78.7200 270° West 401 461 36,000  Level Cleveland Center
Fri 11:29:56 AM 40.1419 -78.8694 270° West 401 461 36,000  Level Cleveland Center
Fri 11:30:57 AM 40.1419 -79.0161 270° West 401 461 36,000  Level Cleveland Center
Fri 11:31:56 AM 40.1439 -79.1600 271° West 401 461 36,000  Level Cleveland Center
Fri 11:32:57 AM 40.1456 -79.3039 271° West 401 461 36,000  Level Cleveland Center
Fri 11:33:56 AM 40.1511 -79.4503 273° West 401 461 36,000  Level Cleveland Center
Fri 11:34:56 AM 40.1525 -79.5944 271° West 401 461 36,000  Level Cleveland Center
Fri 11:35:56 AM 40.1558 -79.7411 272° West 401 461 36,000  Level Cleveland Center
Fri 11:36:56 AM 40.1589 -79.8878 272° West 401 461 36,000  Level Cleveland Center
Fri 11:37:56 AM 40.1617 -80.0317 271° West 401 461 36,000  Level Cleveland Center
Fri 11:38:56 AM 40.1644 -80.1703 272° West 401 461 36,000  Level Cleveland Center
Fri 11:39:57 AM 40.1647 -80.3142 270° West 401 461 36,000  Level Cleveland Center
Fri 11:40:56 AM 40.1672 -80.4717 271° West 401 461 36,000  Level Cleveland Center
Fri 11:41:56 AM 40.1692 -80.6183 271° West 408 470 36,000  Level Cleveland Center
Fri 11:42:56 AM 40.1692 -80.7650 270° West 408 470 36,000  Level Cleveland Center
Fri 11:43:57 AM 40.1708 -80.8956 271° West 408 470 36,000  Level Cleveland Center
Fri 11:46:27 AM 40.1711 -81.2483 270° West 391 450 36,000  Level Indianapolis Center
Fri 11:47:29 AM 40.1694 -81.3944 269° West 396 456 36,000  Level Indianapolis Center
Fri 11:48:30 AM 40.1669 -81.5353 269° West 387 445 36,000  Level Indianapolis Center
Fri 11:49:32 AM 40.1686 -81.6750 271° West 381 438 36,000  Level Indianapolis Center
Fri 11:50:34 AM 40.1786 -81.8256 275° West 379 436 36,000  Level Indianapolis Center
Fri 11:51:35 AM 40.1869 -81.9669 274° West 385 443 36,000  Level Indianapolis Center
Fri 11:52:37 AM 40.1953 -82.1114 274° West 395 455 36,000  Level Indianapolis Center
Fri 11:53:38 AM 40.2033 -82.2567 274° West 397 457 36,000  Level Indianapolis Center
Fri 11:54:40 AM 40.2106 -82.4008 274° West 394 453 36,000 -683 Level Indianapolis Center
Fri 11:55:41 AM 40.2206 -82.5656 275° West 390 449 34,600 -1,610 Descending Indianapolis Center
Fri 11:56:43 AM 40.2267 -82.7028 273° West 378 435 32,700 -1,935 Descending Indianapolis Center
Fri 11:57:45 AM 40.2336 -82.8522 274° West 402 463 30,600 -1,366 Descending Indianapolis Center
Fri 11:58:46 AM 40.2414 -82.9992 274° West 403 464 29,900 -293 Descending Indianapolis Center
Fri 11:59:48 AM 40.2489 -83.1447 274° West 402 463 30,000 49 Climbing Indianapolis Center
Fri 12:00:49 PM 40.2556 -83.2886 274° West 397 457 30,000  Level Indianapolis Center
Fri 12:01:51 PM 40.2619 -83.4325 273° West 395 455 30,000  Level Indianapolis Center
Fri 12:02:53 PM 40.2681 -83.5750 273° West 393 452 30,000  Level Indianapolis Center
Fri 12:03:54 PM 40.2761 -83.7422 274° West 394 453 30,000  Level Indianapolis Center
Fri 12:04:56 PM 40.2681 -83.8797 266° West 377 434 30,000  Level Indianapolis Center
Fri 12:05:58 PM 40.2556 -84.0164 263° West 376 433 30,000  Level Indianapolis Center
Fri 12:06:59 PM 40.2444 -84.1517 264° West 374 430 30,000  Level Indianapolis Center
Fri 12:08:01 PM 40.2331 -84.2869 264° West 373 429 30,000 -774 Level Indianapolis Center
Fri 12:09:03 PM 40.2214 -84.4197 263° West 368 423 28,400 -1,756 Descending Indianapolis Center
Fri 12:10:04 PM 40.2092 -84.5517 263° West 364 419 26,400 -1,951 Descending Indianapolis Center
Fri 12:11:06 PM 40.1964 -84.6828 263° West 361 415 24,400 -2,129 Descending Indianapolis Center
Fri 12:12:08 PM 40.1844 -84.8272 264° West 341 392 22,000 -2,146 Descending Indianapolis Center
Fri 12:13:09 PM 40.1736 -84.9414 263° West 318 366 20,000 -2,098 Descending Indianapolis Center
Fri 12:14:11 PM 40.1647 -85.0578 264° West 319 367 17,700 -2,043 Descending Indianapolis Center
Fri 12:16:14 PM 40.1403 -85.2900 262° West 318 366 13,700 -1,946 Descending Indianapolis Center
Fri 12:17:16 PM 40.1294 -85.3978 263° West 305 351 11,700 -1,366 Descending Indianapolis Center
Fri 12:18:17 PM 40.1092 -85.5050 256° West 300 345 10,900 -390 Descending Indianapolis Center
Fri 12:19:19 PM 40.0831 -85.6256 254° West 302 348 10,900  Level Indianapolis Center
Fri 12:20:21 PM 40.0564 -85.7236 250° West 311 358 10,900 -537 Level Indianapolis Center
Fri 12:21:22 PM 40.0347 -85.8222 254° West 289 333 9,800 -927 Descending Indianapolis Center
Fri 12:22:24 PM 40.0144 -85.9089 253° West 265 305 9,000 -1,743 Descending Indianapolis Center
Fri 12:24:21 PM 39.9167 -86.0333 224° Southwest 236 272 4,600 -1,639 Descending Indianapolis TRACON
Fri 12:25:27 PM 39.8667 -86.0833 218° Southwest 224 258 4,000 -300 Descending Indianapolis TRACON
Fri 12:26:21 PM 39.8333 -86.1333 229° Southwest 192 221 4,000 -526 Level Indianapolis TRACON
Fri 12:27:21 PM 39.8000 -86.1833 229° Southwest 195 224 3,000 -950 Descending Indianapolis TRACON
Fri 12:28:21 PM 39.7667 -86.2167 218° Southwest 158 182 2,100 -850 Descending Indianapolis TRACON
Fri 12:29:21 PM 39.7333 -86.2667 229° Southwest 138 159 1,300 -800 Descending Indianapolis TRACON
Fri 12:31:00 PM 39.7167 -86.2833 270° West  Level FlightAware Approximate
Fri 12:38:00 PM 39.7173 -86.2947 270° West  Level Estimated

Login

Don't have an account? Register now (free) for customized features, flight alerts, and more!